Time;durP1;ratioP1;P1;durP2;ratioP2;P2;SDS_P1;SDS_P2;PMS_P1;PMS_P2;Temp;Humidity;BMP_temperature;BMP_pressure;BME280_temperature;BME280_humidity;BME280_pressure;Samples;Min_cycle;Max_cycle;Signal;HPM_P1;HPM_P2
2023/04/18 00:00:21;;;;;;;3.33;2.97;;;8.90;99.90;;;;;;5080405;28;20406;-84
2023/04/18 00:02:46;;;;;;;3.33;3.03;;;8.90;99.90;;;;;;5081329;28;20378;-84
2023/04/18 00:05:12;;;;;;;3.95;3.28;;;9.00;99.90;;;;;;5081348;28;20378;-85
2023/04/18 00:07:38;;;;;;;4.00;3.60;;;8.90;99.90;;;;;;5100176;28;20436;-84
2023/04/18 00:10:05;;;;;;;3.70;3.40;;;8.90;99.90;;;;;;5098272;28;20378;-84
2023/04/18 00:12:33;;;;;;;3.80;3.50;;;8.80;99.90;;;;;;5098022;28;20958;-84
2023/04/18 00:14:59;;;;;;;3.40;3.10;;;8.80;99.90;;;;;;5080117;28;20818;-85
2023/04/18 00:17:26;;;;;;;3.25;2.95;;;8.80;99.90;;;;;;5080067;28;20386;-84
2023/04/18 00:19:52;;;;;;;3.25;2.90;;;8.80;99.90;;;;;;5098314;28;20836;-84
2023/04/18 00:22:21;;;;;;;3.60;3.30;;;8.80;99.90;;;;;;5084419;28;20397;-84
2023/04/18 00:24:48;;;;;;;4.00;3.60;;;8.80;99.90;;;;;;5084464;28;20508;-82
2023/04/18 00:27:14;;;;;;;3.67;3.38;;;8.80;99.90;;;;;;5098854;28;20918;-84
2023/04/18 00:29:39;;;;;;;3.73;3.43;;;8.80;99.90;;;;;;5081258;28;20378;-85
2023/04/18 00:32:05;;;;;;;4.00;3.37;;;8.80;99.90;;;;;;5098276;28;20378;-84
2023/04/18 00:34:31;;;;;;;3.30;3.10;;;8.80;99.90;;;;;;5079904;28;20435;-84
2023/04/18 00:36:56;;;;;;;3.20;2.90;;;8.80;99.90;;;;;;5098936;28;20462;-84
2023/04/18 00:39:22;;;;;;;3.60;3.30;;;8.70;99.90;;;;;;5081898;28;20475;-85
2023/04/18 00:41:47;;;;;;;3.80;3.50;;;8.80;99.90;;;;;;5080298;28;20401;-84
2023/04/18 00:44:13;;;;;;;3.00;2.80;;;8.70;99.90;;;;;;5097143;28;20424;-85
2023/04/18 00:46:38;;;;;;;4.27;3.10;;;8.70;99.90;;;;;;5079322;28;20477;-84
2023/04/18 00:49:04;;;;;;;3.40;3.20;;;8.60;99.90;;;;;;5079988;28;20408;-82
2023/04/18 00:51:30;;;;;;;3.50;3.20;;;8.60;99.90;;;;;;5079720;28;20411;-84
2023/04/18 00:53:56;;;;;;;3.80;3.50;;;8.50;99.90;;;;;;5097354;28;20381;-85
2023/04/18 00:56:22;;;;;;;3.40;3.10;;;8.50;99.90;;;;;;5097640;28;20393;-84
2023/04/18 00:58:48;;;;;;;3.50;3.20;;;8.50;99.90;;;;;;5068487;28;20398;-85
2023/04/18 01:01:13;;;;;;;3.28;3.00;;;8.50;99.90;;;;;;5059821;28;20498;-84
2023/04/18 01:03:39;;;;;;;3.20;2.90;;;8.50;99.90;;;;;;5076661;28;20380;-84
2023/04/18 01:06:05;;;;;;;3.20;3.00;;;8.50;99.90;;;;;;5057817;28;20376;-84
2023/04/18 01:08:31;;;;;;;3.80;3.50;;;8.50;99.90;;;;;;5077044;28;20384;-82
2023/04/18 01:10:56;;;;;;;3.70;3.40;;;8.50;99.90;;;;;;5058220;28;20909;-82
2023/04/18 01:13:22;;;;;;;5.70;3.60;;;8.50;99.90;;;;;;5076845;28;20391;-83
2023/04/18 01:15:49;;;;;;;3.67;3.37;;;8.40;99.90;;;;;;5077202;28;20387;-84
2023/04/18 01:18:15;;;;;;;3.47;3.23;;;8.40;99.90;;;;;;5060723;28;20376;-85
2023/04/18 01:20:46;;;;;;;3.20;3.00;;;8.50;99.90;;;;;;5074539;28;20496;-84
2023/04/18 01:23:12;;;;;;;3.92;3.33;;;8.50;99.90;;;;;;5057934;28;20430;-83
2023/04/18 01:25:37;;;;;;;3.80;3.50;;;8.40;99.90;;;;;;5076517;28;20388;-85
2023/04/18 01:28:03;;;;;;;4.35;3.05;;;8.40;99.90;;;;;;5076312;28;20376;-85
2023/04/18 01:30:29;;;;;;;3.20;3.00;;;8.30;99.90;;;;;;5055847;28;20387;-85
2023/04/18 01:32:54;;;;;;;4.00;3.63;;;8.30;99.90;;;;;;5057638;28;20901;-84
2023/04/18 01:35:20;;;;;;;3.55;3.25;;;8.20;99.90;;;;;;5057378;28;20399;-84
2023/04/18 01:37:46;;;;;;;4.00;3.40;;;8.20;99.90;;;;;;5057926;28;20533;-85
2023/04/18 01:40:11;;;;;;;3.70;3.40;;;8.20;99.90;;;;;;5056221;28;20404;-84
2023/04/18 01:42:37;;;;;;;3.87;3.57;;;8.10;99.90;;;;;;5056983;28;20456;-85
2023/04/18 01:45:06;;;;;;;5.83;3.80;;;8.30;99.90;;;;;;5056921;28;20371;-84
2023/04/18 01:47:31;;;;;;;3.78;3.47;;;8.10;99.90;;;;;;5056913;28;20380;-84
2023/04/18 01:49:57;;;;;;;3.70;3.40;;;8.10;99.90;;;;;;5074557;28;20804;-84
2023/04/18 01:52:22;;;;;;;4.55;3.70;;;8.10;99.90;;;;;;5075788;28;20889;-85
2023/04/18 01:54:48;;;;;;;4.33;3.93;;;8.10;99.90;;;;;;5077037;28;20380;-83
2023/04/18 01:57:13;;;;;;;4.37;3.97;;;8.00;99.90;;;;;;5074585;28;20384;-82
2023/04/18 01:59:39;;;;;;;4.40;4.00;;;8.00;99.90;;;;;;5057092;28;20395;-85
2023/04/18 02:02:05;;;;;;;4.30;4.00;;;7.90;99.90;;;;;;5075798;28;20380;-82
2023/04/18 02:04:30;;;;;;;3.90;3.60;;;7.70;99.90;;;;;;5075409;28;20387;-82
2023/04/18 02:06:56;;;;;;;4.23;3.83;;;7.70;99.90;;;;;;5055522;28;20388;-82
2023/04/18 02:09:21;;;;;;;4.17;3.87;;;7.70;99.90;;;;;;5074083;28;20399;-82
2023/04/18 02:11:46;;;;;;;4.00;3.70;;;7.70;99.90;;;;;;5075140;28;20391;-82
2023/04/18 02:14:12;;;;;;;4.00;3.70;;;7.60;99.90;;;;;;5057179;28;20388;-82
2023/04/18 02:16:37;;;;;;;4.40;4.10;;;7.60;99.90;;;;;;5055773;28;20384;-82
2023/04/18 02:19:03;;;;;;;4.10;3.80;;;7.50;99.90;;;;;;5074671;28;20423;-84
2023/04/18 02:21:29;;;;;;;3.70;3.40;;;7.50;99.90;;;;;;5057660;28;20470;-84
2023/04/18 02:23:57;;;;;;;4.50;4.10;;;7.50;99.90;;;;;;5059688;28;20402;-84
2023/04/18 02:26:23;;;;;;;4.50;4.07;;;7.50;99.90;;;;;;5059026;28;20383;-84
2023/04/18 02:28:48;;;;;;;5.70;5.10;;;7.50;99.90;;;;;;5058311;28;20380;-84
2023/04/18 02:31:15;;;;;;;5.90;5.40;;;7.80;99.90;;;;;;5075603;28;20415;-84
2023/04/18 02:33:42;;;;;;;5.75;5.25;;;8.00;99.90;;;;;;5056271;28;20743;-84
2023/04/18 02:36:08;;;;;;;10.93;6.60;;;8.10;99.90;;;;;;5075120;28;20384;-84
2023/04/18 02:38:34;;;;;;;5.90;5.40;;;8.20;99.90;;;;;;5056287;28;20384;-84
2023/04/18 02:40:59;;;;;;;6.30;5.70;;;8.30;99.90;;;;;;5074614;28;20446;-85
2023/04/18 02:43:25;;;;;;;6.53;5.95;;;8.30;99.90;;;;;;5055914;28;20384;-84
2023/04/18 02:45:51;;;;;;;6.57;6.00;;;8.10;99.90;;;;;;5056747;28;20456;-84
2023/04/18 02:48:16;;;;;;;6.55;5.95;;;8.10;99.90;;;;;;5056378;28;20380;-84
2023/04/18 02:50:42;;;;;;;6.67;6.07;;;8.10;99.90;;;;;;5056388;28;20412;-84
2023/04/18 02:53:07;;;;;;;6.93;6.33;;;8.10;99.90;;;;;;5056631;28;20451;-84
2023/04/18 02:55:33;;;;;;;6.90;6.30;;;8.00;99.90;;;;;;5073604;28;20390;-84
2023/04/18 02:57:58;;;;;;;7.10;6.43;;;8.00;99.90;;;;;;5058454;28;20480;-84
2023/04/18 03:00:24;;;;;;;7.10;6.30;;;8.10;99.90;;;;;;5074167;28;20490;-84
2023/04/18 03:02:49;;;;;;;7.37;6.67;;;8.00;99.90;;;;;;5094288;28;20887;-84
2023/04/18 03:05:15;;;;;;;6.80;6.20;;;8.00;99.90;;;;;;5075672;28;20382;-85
2023/04/18 03:07:41;;;;;;;6.63;6.03;;;7.90;99.90;;;;;;5095978;28;20473;-84
2023/04/18 03:10:06;;;;;;;6.60;5.90;;;7.90;99.90;;;;;;5098644;28;20782;-84
2023/04/18 03:12:32;;;;;;;7.75;6.07;;;7.90;99.90;;;;;;5080111;28;20378;-84
2023/04/18 03:14:57;;;;;;;6.85;6.25;;;8.00;99.90;;;;;;5080684;28;20382;-84
2023/04/18 03:17:23;;;;;;;6.70;6.10;;;7.80;99.90;;;;;;5084631;28;20808;-85
2023/04/18 03:19:49;;;;;;;6.70;6.00;;;8.00;99.90;;;;;;5084194;28;20394;-84
2023/04/18 03:22:15;;;;;;;5.80;5.20;;;8.10;99.90;;;;;;5101582;28;20396;-85
2023/04/18 03:24:40;;;;;;;6.20;5.70;;;8.00;99.90;;;;;;5098685;28;20443;-84
2023/04/18 03:27:06;;;;;;;6.20;5.60;;;8.00;99.90;;;;;;5098419;28;20428;-84
2023/04/18 03:29:32;;;;;;;6.30;5.70;;;7.90;99.90;;;;;;5080793;28;20782;-85
2023/04/18 03:31:57;;;;;;;6.60;6.00;;;7.90;99.90;;;;;;5082548;28;20413;-84
2023/04/18 03:34:23;;;;;;;6.70;6.10;;;7.80;99.90;;;;;;5080890;28;20795;-84
2023/04/18 03:36:48;;;;;;;6.70;6.10;;;7.80;99.90;;;;;;5080286;28;20783;-85
2023/04/18 03:39:14;;;;;;;7.18;6.47;;;7.80;99.90;;;;;;5098799;28;20389;-84
2023/04/18 03:41:39;;;;;;;7.53;6.83;;;7.80;99.90;;;;;;5080875;28;20912;-84
2023/04/18 03:44:05;;;;;;;7.87;6.57;;;7.70;99.90;;;;;;5098363;28;20373;-84
2023/04/18 03:46:30;;;;;;;7.17;6.47;;;7.60;99.90;;;;;;5079867;28;20374;-84
2023/04/18 03:48:56;;;;;;;7.45;6.75;;;7.60;99.90;;;;;;5079413;28;20393;-84
2023/04/18 03:51:21;;;;;;;7.03;6.43;;;7.70;99.90;;;;;;5097806;28;20898;-84
2023/04/18 03:53:47;;;;;;;7.73;7.03;;;7.70;99.90;;;;;;5097052;28;20481;-84
2023/04/18 03:56:12;;;;;;;7.80;7.10;;;7.60;99.90;;;;;;5078904;28;20450;-84
2023/04/18 03:58:38;;;;;;;7.70;6.90;;;7.70;99.90;;;;;;5069471;28;20796;-84
2023/04/18 04:01:05;;;;;;;7.50;6.80;;;7.80;99.90;;;;;;5078797;28;20468;-85
2023/04/18 04:03:30;;;;;;;7.45;6.75;;;7.90;99.90;;;;;;5060356;28;20459;-84
2023/04/18 04:05:56;;;;;;;7.97;6.70;;;7.70;99.90;;;;;;5065806;28;20412;-84
2023/04/18 04:08:21;;;;;;;8.15;7.38;;;7.80;99.90;;;;;;5083791;28;20750;-84
2023/04/18 04:10:47;;;;;;;7.50;6.80;;;7.70;99.90;;;;;;5066624;28;20387;-85
2023/04/18 04:13:12;;;;;;;8.40;7.50;;;7.60;99.90;;;;;;5062710;28;20912;-84
2023/04/18 04:15:38;;;;;;;8.50;7.70;;;7.60;99.90;;;;;;5066723;28;20384;-84
2023/04/18 04:18:07;;;;;;;8.40;7.53;;;7.60;99.90;;;;;;5079676;28;20391;-85
2023/04/18 04:20:33;;;;;;;8.77;7.65;;;7.50;99.90;;;;;;5061547;28;20415;-85
2023/04/18 04:22:58;;;;;;;8.60;7.70;;;7.40;99.90;;;;;;5061342;28;20435;-85
2023/04/18 04:25:27;;;;;;;9.80;8.48;;;7.40;99.90;;;;;;5078206;28;20376;-84
2023/04/18 04:27:53;;;;;;;9.38;8.48;;;7.30;99.90;;;;;;5059832;28;20463;-84
2023/04/18 04:30:19;;;;;;;9.35;8.48;;;7.20;99.90;;;;;;5061800;28;20387;-84
2023/04/18 04:32:46;;;;;;;9.30;8.40;;;7.20;99.90;;;;;;5078796;28;20866;-85
2023/04/18 04:35:11;;;;;;;9.30;8.40;;;7.30;99.90;;;;;;5059982;28;20419;-84
2023/04/18 04:37:39;;;;;;;11.10;9.30;;;7.30;99.90;;;;;;5090906;28;21049;-84
2023/04/18 04:40:08;;;;;;;10.15;8.70;;;7.40;99.90;;;;;;5106096;28;20970;-85
2023/04/18 04:42:34;;;;;;;10.37;8.70;;;7.30;99.90;;;;;;5103227;28;20399;-85
2023/04/18 04:45:01;;;;;;;10.00;9.00;;;7.30;99.90;;;;;;5101308;28;20932;-85
2023/04/18 04:47:27;;;;;;;9.98;9.07;;;7.40;99.90;;;;;;5095805;28;20412;-84
2023/04/18 04:49:52;;;;;;;9.17;8.27;;;7.40;99.90;;;;;;5090752;28;20387;-85
2023/04/18 04:52:18;;;;;;;10.83;8.70;;;7.20;99.90;;;;;;5068724;28;20394;-84
2023/04/18 04:54:44;;;;;;;9.57;8.60;;;7.30;99.90;;;;;;5071220;28;20392;-84
2023/04/18 04:57:10;;;;;;;9.90;8.90;;;7.40;99.90;;;;;;5076047;28;20388;-84
2023/04/18 04:59:35;;;;;;;10.55;9.45;;;7.40;99.90;;;;;;5086191;28;20419;-84
2023/04/18 05:02:01;;;;;;;9.57;8.68;;;7.40;99.90;;;;;;5091051;28;20432;-83
2023/04/18 05:04:26;;;;;;;10.50;9.40;;;7.40;99.90;;;;;;5072636;28;20742;-84
2023/04/18 05:06:52;;;;;;;9.67;8.67;;;7.40;99.90;;;;;;5100242;28;20406;-84
2023/04/18 05:09:19;;;;;;;10.70;9.60;;;7.40;99.90;;;;;;5086075;28;20449;-84
2023/04/18 05:11:45;;;;;;;11.65;9.55;;;7.50;99.90;;;;;;5082725;28;20390;-83
2023/04/18 05:14:11;;;;;;;10.70;9.70;;;7.50;99.90;;;;;;5088752;28;20380;-83
2023/04/18 05:16:36;;;;;;;10.35;9.20;;;7.50;99.90;;;;;;5074661;28;20751;-84
2023/04/18 05:19:02;;;;;;;11.93;9.70;;;7.50;99.90;;;;;;5090128;28;20388;-84
2023/04/18 05:21:28;;;;;;;11.30;10.20;;;7.50;99.90;;;;;;5088289;28;20407;-84
2023/04/18 05:23:54;;;;;;;11.02;9.80;;;7.40;99.90;;;;;;5063320;28;20483;-83
2023/04/18 05:26:20;;;;;;;10.77;9.68;;;7.30;99.90;;;;;;5081626;28;20394;-84
2023/04/18 05:28:46;;;;;;;10.33;9.33;;;7.30;99.90;;;;;;5062636;28;20391;-84
2023/04/18 05:31:11;;;;;;;12.00;10.87;;;7.30;99.90;;;;;;5100555;28;20453;-84
2023/04/18 05:33:37;;;;;;;12.03;9.93;;;7.40;99.90;;;;;;5084173;28;20392;-84
2023/04/18 05:36:02;;;;;;;11.60;9.82;;;7.40;99.90;;;;;;5099229;28;20385;-83
2023/04/18 05:38:28;;;;;;;11.93;10.52;;;7.30;99.90;;;;;;5081441;28;20472;-83
2023/04/18 05:40:54;;;;;;;11.80;10.60;;;7.50;99.90;;;;;;5097403;28;20801;-83
2023/04/18 05:43:20;;;;;;;11.10;9.93;;;7.40;99.90;;;;;;5080780;28;20394;-84
2023/04/18 05:45:46;;;;;;;11.10;10.00;;;7.50;99.90;;;;;;5081106;28;20476;-83
2023/04/18 05:48:12;;;;;;;11.70;10.50;;;7.60;99.90;;;;;;5079487;28;20390;-83
2023/04/18 05:50:38;;;;;;;11.40;10.20;;;7.50;99.90;;;;;;5079901;28;20481;-83
2023/04/18 05:53:04;;;;;;;13.90;11.30;;;7.60;99.90;;;;;;5079919;28;20417;-84
2023/04/18 05:55:29;;;;;;;11.07;9.97;;;7.50;99.90;;;;;;5078909;28;20390;-84
2023/04/18 05:57:55;;;;;;;13.23;11.87;;;7.30;99.90;;;;;;5094040;28;20419;-84
2023/04/18 06:00:21;;;;;;;12.10;10.90;;;7.60;99.90;;;;;;5076419;28;20820;-84
2023/04/18 06:02:46;;;;;;;12.23;11.03;;;7.40;99.90;;;;;;5077890;28;20383;-83
2023/04/18 06:05:12;;;;;;;11.80;10.65;;;7.50;99.90;;;;;;5059905;28;20388;-84
2023/04/18 06:07:37;;;;;;;12.68;11.48;;;7.50;99.90;;;;;;5061223;28;20886;-84
2023/04/18 06:10:07;;;;;;;12.18;11.07;;;7.60;99.90;;;;;;5059907;28;20915;-83
2023/04/18 06:12:33;;;;;;;12.30;11.10;;;7.50;99.90;;;;;;5077715;28;20375;-83
2023/04/18 06:14:59;;;;;;;13.18;11.88;;;7.50;99.90;;;;;;5060618;28;20383;-83
2023/04/18 06:17:24;;;;;;;13.10;11.90;;;7.50;99.90;;;;;;5076643;28;20387;-83
2023/04/18 06:19:50;;;;;;;13.23;11.93;;;7.60;99.90;;;;;;5058582;28;20406;-83
2023/04/18 06:22:15;;;;;;;13.20;11.80;;;7.60;99.90;;;;;;5060224;28;20810;-83
2023/04/18 06:24:41;;;;;;;14.40;12.80;;;7.60;99.90;;;;;;5077794;28;20376;-84
2023/04/18 06:27:06;;;;;;;13.17;11.23;;;7.70;99.90;;;;;;5059141;28;20387;-84
2023/04/18 06:29:32;;;;;;;13.20;11.90;;;7.70;99.90;;;;;;5077020;28;20461;-84
2023/04/18 06:31:58;;;;;;;14.55;12.95;;;7.60;99.90;;;;;;5058561;28;20459;-84
2023/04/18 06:34:24;;;;;;;15.60;11.83;;;7.70;99.90;;;;;;5057872;28;20387;-83
2023/04/18 06:36:50;;;;;;;13.80;12.00;;;7.70;99.90;;;;;;5076253;28;20388;-83
2023/04/18 06:39:15;;;;;;;13.97;12.57;;;7.70;99.90;;;;;;5059561;28;20395;-84
2023/04/18 06:41:41;;;;;;;13.47;12.07;;;7.80;99.90;;;;;;5077784;28;20404;-83
2023/04/18 06:44:06;;;;;;;14.53;12.03;;;7.80;99.90;;;;;;5080129;28;20388;-83
2023/04/18 06:46:32;;;;;;;14.52;11.65;;;7.80;99.90;;;;;;5081624;28;20379;-84
2023/04/18 06:48:58;;;;;;;13.30;12.00;;;7.70;99.90;;;;;;5081469;28;20379;-83
2023/04/18 06:51:23;;;;;;;13.93;12.07;;;7.90;99.90;;;;;;5062120;28;20794;-83
2023/04/18 06:53:51;;;;;;;13.73;12.23;;;8.00;99.90;;;;;;5063629;28;20384;-83
2023/04/18 06:56:18;;;;;;;13.25;11.90;;;8.10;99.90;;;;;;5063216;28;20909;-83
2023/04/18 06:58:44;;;;;;;14.65;13.05;;;7.90;99.90;;;;;;5062529;28;20404;-84
2023/04/18 07:01:10;;;;;;;13.95;12.57;;;7.90;99.90;;;;;;5062521;28;20435;-83
2023/04/18 07:03:35;;;;;;;15.53;12.40;;;7.80;99.90;;;;;;5080912;28;20383;-84
2023/04/18 07:06:01;;;;;;;14.43;12.48;;;7.90;99.90;;;;;;5061370;28;20453;-84
2023/04/18 07:08:27;;;;;;;14.38;12.88;;;8.00;99.90;;;;;;5061804;28;20407;-84
2023/04/18 07:10:53;;;;;;;17.90;13.53;;;8.00;99.90;;;;;;5061526;28;20465;-84
2023/04/18 07:13:18;;;;;;;14.87;13.27;;;8.00;99.90;;;;;;5062081;28;20906;-83
2023/04/18 07:15:44;;;;;;;15.10;13.10;;;7.90;99.90;;;;;;5079834;28;20463;-84
2023/04/18 07:18:09;;;;;;;16.40;14.48;;;8.00;99.90;;;;;;5061952;28;20379;-83
2023/04/18 07:20:35;;;;;;;16.13;14.18;;;8.10;99.90;;;;;;5061786;28;20410;-84
2023/04/18 07:23:00;;;;;;;16.20;14.50;;;8.10;99.90;;;;;;5061297;28;20426;-83
2023/04/18 07:25:26;;;;;;;16.73;14.37;;;8.10;99.90;;;;;;5079219;28;20888;-83
2023/04/18 07:27:51;;;;;;;16.35;14.65;;;8.10;99.90;;;;;;5081172;28;20419;-84
2023/04/18 07:30:17;;;;;;;16.27;14.57;;;7.90;99.90;;;;;;5062985;28;20375;-84
2023/04/18 07:32:43;;;;;;;15.88;14.27;;;7.90;99.90;;;;;;5063453;28;20388;-83
2023/04/18 07:35:09;;;;;;;17.50;15.00;;;8.00;99.90;;;;;;5064184;28;20442;-84
2023/04/18 07:37:35;;;;;;;18.95;16.35;;;8.10;99.90;;;;;;5066451;28;20414;-83
2023/04/18 07:40:00;;;;;;;17.27;15.55;;;8.10;99.90;;;;;;5070427;28;20411;-83
2023/04/18 07:42:26;;;;;;;17.00;15.30;;;8.20;99.90;;;;;;5064932;28;20384;-84
2023/04/18 07:44:57;;;;;;;17.42;15.63;;;8.20;99.90;;;;;;5063643;28;20391;-84
2023/04/18 07:47:22;;;;;;;16.20;14.60;;;8.20;99.90;;;;;;5080813;28;20379;-83
2023/04/18 07:49:48;;;;;;;17.13;15.32;;;8.50;99.90;;;;;;5080427;28;20386;-84
2023/04/18 07:52:13;;;;;;;17.30;15.50;;;8.30;99.90;;;;;;5062318;28;20396;-83
2023/04/18 07:54:39;;;;;;;17.67;15.80;;;8.50;99.90;;;;;;5079923;28;20801;-84
2023/04/18 07:57:05;;;;;;;17.60;15.80;;;8.60;99.90;;;;;;5079574;28;20376;-84
2023/04/18 07:59:31;;;;;;;16.10;14.50;;;8.60;99.90;;;;;;5077474;28;20390;-83
2023/04/18 08:01:56;;;;;;;16.50;14.80;;;8.70;99.90;;;;;;5101823;28;20587;-84
2023/04/18 08:04:22;;;;;;;16.27;14.60;;;8.70;99.90;;;;;;5100099;28;20378;-84
2023/04/18 08:06:47;;;;;;;15.60;14.00;;;8.80;99.90;;;;;;5099084;28;20374;-84
2023/04/18 08:09:13;;;;;;;15.32;13.73;;;9.00;99.90;;;;;;5099945;28;20386;-84
2023/04/18 08:11:41;;;;;;;14.32;12.82;;;9.00;99.90;;;;;;5082454;28;20420;-83
2023/04/18 08:14:06;;;;;;;15.52;13.77;;;9.20;99.90;;;;;;5099170;28;20518;-84
2023/04/18 08:16:32;;;;;;;16.10;12.37;;;9.30;99.90;;;;;;5098624;28;20394;-84
2023/04/18 08:18:57;;;;;;;13.97;12.47;;;9.30;99.90;;;;;;5100750;28;20431;-84
2023/04/18 08:21:23;;;;;;;13.30;11.67;;;9.30;99.90;;;;;;5099723;28;20899;-84
2023/04/18 08:23:49;;;;;;;13.18;11.50;;;9.40;99.90;;;;;;5080413;28;20390;-84
2023/04/18 08:26:14;;;;;;;13.60;12.20;;;9.50;99.90;;;;;;5080687;28;20386;-84
2023/04/18 08:28:40;;;;;;;13.98;12.02;;;9.40;99.90;;;;;;5099385;28;20407;-84
2023/04/18 08:31:05;;;;;;;13.32;11.93;;;9.50;99.90;;;;;;5081273;28;20473;-84
2023/04/18 08:33:31;;;;;;;13.10;11.80;;;9.80;99.90;;;;;;5079475;28;20434;-84
2023/04/18 08:35:57;;;;;;;13.90;12.50;;;9.70;99.90;;;;;;5079297;28;20409;-84
2023/04/18 08:38:22;;;;;;;12.70;11.50;;;9.70;99.90;;;;;;5099212;28;20449;-84
2023/04/18 08:40:48;;;;;;;12.65;11.35;;;9.70;99.90;;;;;;5115903;22;20430;-80
2023/04/18 08:43:14;;;;;;;12.70;11.10;;;9.70;99.90;;;;;;5115216;28;20396;-81
2023/04/18 08:45:41;;;;;;;13.40;11.70;;;9.60;99.90;;;;;;5097697;28;20412;-81
2023/04/18 08:48:12;;;;;;;12.65;11.35;;;9.60;99.90;;;;;;5098830;28;20402;-80
2023/04/18 08:50:38;;;;;;;12.70;11.40;;;9.80;99.90;;;;;;5086064;28;20406;-82
2023/04/18 08:53:04;;;;;;;12.90;11.60;;;9.60;99.90;;;;;;5094009;28;20370;-83
2023/04/18 08:55:32;;;;;;;12.90;11.60;;;9.50;99.90;;;;;;5082116;28;20372;-83
2023/04/18 08:57:58;;;;;;;12.20;10.90;;;9.70;99.90;;;;;;5081221;28;20892;-83
2023/04/18 09:00:26;;;;;;;12.18;10.43;;;9.90;99.90;;;;;;5063174;28;20404;-82
2023/04/18 09:02:55;;;;;;;11.30;10.20;;;10.10;99.90;;;;;;5080428;28;20778;-81
2023/04/18 09:05:23;;;;;;;10.88;9.77;;;9.80;99.90;;;;;;5079118;28;20384;-80
2023/04/18 09:07:51;;;;;;;11.48;10.27;;;9.90;99.90;;;;;;5061593;28;20407;-82
2023/04/18 09:10:33;;;;;;;11.93;10.73;;;10.10;99.90;;;;;;5061648;28;20399;-84
2023/04/18 09:13:01;;;;;;;11.27;10.18;;;10.10;99.90;;;;;;5078941;28;20874;-83
2023/04/18 09:15:28;;;;;;;10.15;9.15;;;10.40;99.90;;;;;;5060971;28;21071;-83
2023/04/18 09:17:56;;;;;;;10.63;9.52;;;10.50;99.90;;;;;;5060879;28;20387;-83
2023/04/18 09:20:39;;;;;;;9.80;8.77;;;10.30;99.90;;;;;;5080078;28;20399;-83
2023/04/18 09:23:10;;;;;;;10.73;9.73;;;10.10;99.90;;;;;;5063351;28;20384;-83
2023/04/18 09:25:45;;;;;;;10.52;9.43;;;10.20;99.90;;;;;;5063133;28;20406;-84
2023/04/18 09:28:28;;;;;;;9.50;8.50;;;10.30;99.90;;;;;;5062185;28;20388;-83
2023/04/18 09:31:14;;;;;;;8.65;7.85;;;10.50;99.90;;;;;;5063294;28;20412;-82
2023/04/18 09:33:51;;;;;;;9.27;8.27;;;10.40;99.90;;;;;;5062079;28;20443;-84
2023/04/18 09:36:22;;;;;;;10.33;8.40;;;10.40;99.90;;;;;;5061082;28;20387;-83
2023/04/18 09:38:49;;;;;;;8.90;8.10;;;10.40;99.90;;;;;;5059565;28;20383;-82
2023/04/18 09:41:16;;;;;;;10.25;8.63;;;10.50;99.90;;;;;;5077137;28;20461;-82
2023/04/18 09:43:45;;;;;;;8.75;7.85;;;10.10;99.90;;;;;;5075666;28;20920;-82
2023/04/18 09:46:11;;;;;;;8.50;7.60;;;10.30;99.90;;;;;;5058982;28;20379;-80
2023/04/18 09:48:37;;;;;;;8.50;7.60;;;10.20;99.90;;;;;;5058337;28;20387;-82
2023/04/18 09:51:09;;;;;;;11.80;7.80;;;10.20;99.90;;;;;;5076732;28;20383;-83
2023/04/18 09:53:49;;;;;;;8.27;7.47;;;10.50;99.90;;;;;;5058724;28;20387;-82
2023/04/18 09:56:27;;;;;;;7.60;6.90;;;10.30;99.90;;;;;;5080278;28;20380;-82
2023/04/18 09:59:07;;;;;;;8.32;7.43;;;10.40;99.90;;;;;;5050120;28;20816;-81
2023/04/18 10:01:33;;;;;;;8.20;7.30;;;10.30;99.90;;;;;;5040382;28;20431;-81
2023/04/18 10:04:02;;;;;;;7.78;6.65;;;10.30;99.90;;;;;;5038341;28;20476;-83
2023/04/18 10:06:32;;;;;;;7.75;6.88;;;10.30;99.90;;;;;;5038543;28;20404;-82
2023/04/18 10:08:59;;;;;;;7.60;6.90;;;10.30;99.90;;;;;;5039087;28;20447;-82
2023/04/18 10:11:24;;;;;;;7.03;6.32;;;10.00;99.90;;;;;;5058407;28;20410;-79
2023/04/18 10:13:54;;;;;;;7.82;7.03;;;10.30;99.90;;;;;;5076280;28;20472;-79
2023/04/18 10:16:20;;;;;;;7.70;7.00;;;10.20;99.90;;;;;;5076529;28;20370;-79
2023/04/18 10:18:47;;;;;;;6.63;6.03;;;10.50;99.90;;;;;;5077301;28;20421;-82
2023/04/18 10:21:14;;;;;;;7.60;6.67;;;10.60;99.90;;;;;;5055924;28;20801;-80
2023/04/18 10:23:40;;;;;;;7.28;6.57;;;10.40;99.90;;;;;;5038630;28;20421;-80
2023/04/18 10:26:09;;;;;;;7.78;7.07;;;10.60;99.90;;;;;;5056729;28;20373;-81
2023/04/18 10:28:57;;;;;;;8.10;7.30;;;10.60;99.90;;;;;;5056253;28;20423;-83
2023/04/18 10:31:28;;;;;;;8.38;7.57;;;10.00;99.90;;;;;;5040238;28;20388;-81
2023/04/18 10:33:59;;;;;;;8.10;7.30;;;10.10;99.90;;;;;;5058382;28;20381;-81
2023/04/18 10:36:25;;;;;;;8.25;7.45;;;10.10;99.90;;;;;;5074793;28;20388;-79
2023/04/18 10:38:53;;;;;;;7.90;7.10;;;10.30;99.90;;;;;;5061720;28;20446;-82
2023/04/18 10:41:26;;;;;;;7.95;7.15;;;10.40;99.90;;;;;;5059843;28;20409;-82
2023/04/18 10:44:14;;;;;;;8.15;7.35;;;10.30;99.90;;;;;;5041934;28;20412;-83
2023/04/18 10:46:50;;;;;;;7.90;7.10;;;10.40;99.90;;;;;;5041975;28;20430;-82
2023/04/18 10:49:17;;;;;;;7.88;7.07;;;10.50;99.90;;;;;;5043620;28;20464;-81
2023/04/18 10:51:50;;;;;;;7.50;6.80;;;10.40;99.90;;;;;;5070916;28;20390;-82
2023/04/18 10:54:24;;;;;;;8.70;7.88;;;10.50;99.90;;;;;;5048854;28;20388;-81
2023/04/18 10:57:03;;;;;;;8.10;7.30;;;10.50;99.90;;;;;;5064867;28;20405;-83
2023/04/18 10:59:31;;;;;;;8.77;7.88;;;10.60;99.90;;;;;;5069717;28;20414;-80
2023/04/18 11:02:21;;;;;;;8.25;7.40;;;10.40;99.90;;;;;;5066217;28;20407;-83
2023/04/18 11:04:52;;;;;;;8.55;7.75;;;10.50;99.90;;;;;;5080704;28;20406;-82
2023/04/18 11:07:18;;;;;;;7.95;7.15;;;10.50;99.90;;;;;;5080683;28;21111;-83
2023/04/18 11:09:53;;;;;;;8.35;7.40;;;10.60;99.90;;;;;;5079036;28;20426;-84
2023/04/18 11:12:19;;;;;;;8.27;7.47;;;10.80;99.90;;;;;;5076373;28;20403;-81
2023/04/18 11:14:47;;;;;;;10.02;9.00;;;10.90;99.90;;;;;;5096079;28;20383;-80
2023/04/18 11:17:27;;;;;;;9.05;8.15;;;10.90;99.90;;;;;;5069712;28;20471;-83
2023/04/18 11:20:11;;;;;;;8.73;7.82;;;10.90;99.90;;;;;;5060083;28;20429;-83
2023/04/18 11:22:50;;;;;;;8.80;8.00;;;11.00;99.90;;;;;;5060755;28;20384;-83
2023/04/18 11:25:17;;;;;;;9.40;8.35;;;11.10;99.90;;;;;;5077504;28;20741;-83
2023/04/18 11:27:48;;;;;;;8.73;7.90;;;11.20;99.90;;;;;;5077525;28;20890;-84
2023/04/18 11:30:14;;;;;;;8.73;7.93;;;11.40;99.90;;;;;;5058648;28;20397;-84
2023/04/18 11:32:40;;;;;;;9.30;8.40;;;11.50;99.90;;;;;;5076635;28;20510;-84
2023/04/18 11:35:13;;;;;;;9.10;8.20;;;11.70;99.90;;;;;;5077057;28;20388;-83
2023/04/18 11:37:40;;;;;;;11.68;10.43;;;11.70;99.90;;;;;;5075459;28;20408;-84
2023/04/18 11:40:08;;;;;;;13.63;11.35;;;11.60;99.90;;;;;;5076380;28;20395;-83
2023/04/18 11:42:36;;;;;;;13.25;11.90;;;11.20;99.90;;;;;;5058893;28;20383;-83
2023/04/18 11:45:02;;;;;;;13.82;12.10;;;11.40;99.90;;;;;;5077534;28;20391;-82
2023/04/18 11:47:31;;;;;;;12.63;11.32;;;11.70;99.90;;;;;;5059498;28;20466;-82
2023/04/18 11:49:59;;;;;;;14.00;12.60;;;11.60;99.90;;;;;;5077361;28;20379;-83
2023/04/18 11:52:29;;;;;;;14.27;12.32;;;11.80;99.90;;;;;;5078337;28;20944;-83
2023/04/18 11:54:55;;;;;;;13.43;12.02;;;11.70;99.90;;;;;;5079406;28;20468;-83
2023/04/18 11:57:24;;;;;;;15.70;12.45;;;11.70;99.90;;;;;;5061461;28;20403;-82
2023/04/18 11:59:55;;;;;;;15.00;12.70;;;11.50;99.90;;;;;;5078345;28;20371;-83
2023/04/18 12:02:23;;;;;;;13.98;12.52;;;11.40;99.90;;;;;;5060738;28;20513;-85
2023/04/18 12:04:53;;;;;;;13.38;12.07;;;11.30;99.90;;;;;;5078474;28;20873;-81
2023/04/18 12:07:29;;;;;;;12.82;11.50;;;11.60;99.90;;;;;;5060053;28;20426;-82
2023/04/18 12:09:55;;;;;;;12.73;11.43;;;11.70;99.90;;;;;;5060858;28;20386;-82
2023/04/18 12:12:21;;;;;;;12.07;10.77;;;11.80;99.90;;;;;;5079079;28;20460;-83
2023/04/18 12:14:47;;;;;;;13.13;11.82;;;12.10;99.90;;;;;;5061352;28;20455;-83
2023/04/18 12:17:12;;;;;;;13.00;11.60;;;12.20;99.90;;;;;;5078024;28;20423;-81
2023/04/18 12:19:44;;;;;;;13.33;12.03;;;12.00;99.90;;;;;;5089634;28;20413;-81
2023/04/18 12:22:09;;;;;;;12.65;11.40;;;11.90;99.90;;;;;;5082658;28;20400;-81
2023/04/18 12:24:36;;;;;;;12.80;11.60;;;12.10;99.90;;;;;;5078429;28;20414;-83
2023/04/18 12:27:02;;;;;;;12.52;11.23;;;12.40;99.90;;;;;;5060406;28;20436;-82
2023/04/18 12:29:28;;;;;;;13.80;12.40;;;12.20;99.90;;;;;;5059623;28;20454;-83
2023/04/18 12:32:17;;;;;;;13.80;12.40;;;12.20;99.90;;;;;;5059760;28;20383;-83
2023/04/18 12:34:43;;;;;;;13.18;11.88;;;12.50;99.90;;;;;;5078503;28;20422;-83
2023/04/18 12:37:08;;;;;;;15.27;13.10;;;12.40;99.90;;;;;;5077588;28;20771;-83
2023/04/18 12:39:34;;;;;;;14.57;13.07;;;12.20;99.90;;;;;;5077972;28;20439;-82
2023/04/18 12:42:01;;;;;;;13.70;12.30;;;12.50;99.90;;;;;;5077465;28;20869;-82
2023/04/18 12:44:33;;;;;;;13.48;12.25;;;12.70;99.90;;;;;;5058458;28;20376;-81